createdAt,value
2018-06-10T00:00:05.171Z,99.90
2018-06-10T00:02:35.276Z,99.90
2018-06-10T00:05:05.517Z,99.90
2018-06-10T00:07:35.623Z,99.60
2018-06-10T00:10:05.739Z,99.60
2018-06-10T00:12:35.808Z,99.60
2018-06-10T00:15:06.376Z,99.50
2018-06-10T00:17:36.471Z,99.50
2018-06-10T00:20:06.564Z,99.60
2018-06-10T00:22:36.651Z,99.90
2018-06-10T00:25:07.252Z,99.90
2018-06-10T00:27:37.344Z,99.90
2018-06-10T00:30:07.468Z,99.90
2018-06-10T00:32:37.568Z,99.90
2018-06-10T00:35:07.672Z,99.90
2018-06-10T00:37:37.788Z,99.90
2018-06-10T00:40:07.938Z,99.90
2018-06-10T00:42:38.012Z,99.90
2018-06-10T00:45:08.105Z,99.90
2018-06-10T00:47:38.227Z,99.90
2018-06-10T00:50:08.333Z,99.90
2018-06-10T00:52:38.409Z,99.90
2018-06-10T00:55:08.518Z,99.90
2018-06-10T00:57:38.603Z,99.90
2018-06-10T01:00:08.684Z,99.90
2018-06-10T01:02:38.869Z,99.90
2018-06-10T01:05:08.944Z,99.90
2018-06-10T01:07:39.092Z,99.90
2018-06-10T01:10:09.168Z,99.90
2018-06-10T01:12:39.288Z,99.90
2018-06-10T01:15:09.453Z,99.90
2018-06-10T01:17:39.520Z,99.90
2018-06-10T01:20:09.575Z,99.90
2018-06-10T01:22:39.668Z,99.90
2018-06-10T01:25:09.764Z,99.90
2018-06-10T01:27:39.863Z,99.90
2018-06-10T01:30:09.960Z,99.90
2018-06-10T01:32:40.051Z,99.80
2018-06-10T01:35:10.120Z,99.90
2018-06-10T01:37:40.224Z,99.90
2018-06-10T01:40:10.287Z,99.90
2018-06-10T01:42:40.380Z,99.90
2018-06-10T01:45:10.452Z,99.90
2018-06-10T01:47:40.516Z,99.90
2018-06-10T01:50:10.603Z,99.90
2018-06-10T01:52:40.672Z,99.90
2018-06-10T01:55:10.747Z,99.90
2018-06-10T01:57:40.817Z,99.90
2018-06-10T02:00:10.920Z,99.90
2018-06-10T02:02:41.004Z,99.90
2018-06-10T02:05:11.132Z,99.90
2018-06-10T02:07:41.283Z,99.90
2018-06-10T02:10:11.402Z,99.90
2018-06-10T02:12:41.460Z,99.90
2018-06-10T02:15:11.540Z,99.90
2018-06-10T02:17:41.645Z,99.90
2018-06-10T02:20:11.859Z,99.90
2018-06-10T02:22:41.961Z,99.90
2018-06-10T02:25:12.033Z,99.90
2018-06-10T02:27:42.140Z,99.90
2018-06-10T02:30:12.216Z,99.90
2018-06-10T02:32:42.370Z,99.90
2018-06-10T02:35:12.516Z,99.90
2018-06-10T02:37:42.596Z,99.90
2018-06-10T02:40:12.661Z,99.90
2018-06-10T02:42:42.757Z,99.90
2018-06-10T02:45:12.948Z,99.90
2018-06-10T02:47:43.028Z,99.90
2018-06-10T02:50:13.175Z,99.90
2018-06-10T02:52:43.256Z,99.90
2018-06-10T02:55:13.356Z,99.90
2018-06-10T02:57:43.435Z,99.90
2018-06-10T03:00:13.500Z,99.90
2018-06-10T03:02:43.600Z,99.90
2018-06-10T03:05:13.676Z,99.90
2018-06-10T03:07:43.802Z,99.90
2018-06-10T03:10:13.860Z,99.90
2018-06-10T03:12:43.964Z,99.90
2018-06-10T03:15:14.041Z,99.90
2018-06-10T03:17:44.188Z,99.90
2018-06-10T03:20:14.265Z,99.90
2018-06-10T03:22:44.343Z,99.90
2018-06-10T03:25:14.431Z,99.90
2018-06-10T03:27:45.333Z,99.90
2018-06-10T03:30:15.518Z,99.90
2018-06-10T03:32:45.599Z,99.90
2018-06-10T03:35:15.705Z,99.90
2018-06-10T03:37:45.799Z,99.90
2018-06-10T03:40:15.874Z,99.90
2018-06-10T03:45:15.671Z,99.90
2018-06-10T03:47:45.761Z,99.90
2018-06-10T03:50:15.844Z,99.90
2018-06-10T03:52:45.919Z,99.90
2018-06-10T03:55:16.053Z,99.90
2018-06-10T03:57:46.131Z,99.90
2018-06-10T04:00:16.196Z,99.90
2018-06-10T04:02:46.271Z,99.90
2018-06-10T04:05:16.343Z,99.90
2018-06-10T04:07:46.524Z,99.90
2018-06-10T04:10:16.597Z,99.30
2018-06-10T04:12:46.680Z,98.40
2018-06-10T04:15:16.753Z,97.50
2018-06-10T04:17:46.867Z,96.70
2018-06-10T04:20:16.934Z,95.70
2018-06-10T04:22:47.022Z,95.20
2018-06-10T04:25:17.125Z,94.50
2018-06-10T04:27:47.213Z,93.20
2018-06-10T04:30:17.291Z,92.40
2018-06-10T04:32:47.416Z,92.20
2018-06-10T04:35:17.478Z,90.40
2018-06-10T04:37:47.549Z,89.20
2018-06-10T04:40:17.625Z,87.60
2018-06-10T04:42:47.762Z,85.90
2018-06-10T04:45:17.861Z,85.00
2018-06-10T04:47:47.916Z,82.50
2018-06-10T04:50:17.987Z,82.20
2018-06-10T04:52:48.104Z,80.30
2018-06-10T04:55:18.151Z,80.50
2018-06-10T04:57:48.296Z,80.40
2018-06-10T05:00:18.364Z,79.00
2018-06-10T05:02:48.452Z,81.00
2018-06-10T05:05:18.548Z,82.80
2018-06-10T05:07:48.603Z,83.80
2018-06-10T05:10:18.712Z,84.30
2018-06-10T05:12:48.777Z,81.60
2018-06-10T05:15:18.969Z,79.10
2018-06-10T05:17:49.036Z,79.70
2018-06-10T05:20:19.138Z,79.10
2018-06-10T05:22:49.195Z,75.70
2018-06-10T05:25:19.273Z,74.10
2018-06-10T05:27:49.400Z,71.50
2018-06-10T05:30:19.460Z,70.20
2018-06-10T05:32:49.536Z,71.10
2018-06-10T05:35:19.631Z,68.20
2018-06-10T05:37:49.748Z,67.90
2018-06-10T05:40:19.800Z,67.90
2018-06-10T05:42:49.880Z,65.30
2018-06-10T05:45:19.994Z,64.90
2018-06-10T05:47:50.076Z,64.60
2018-06-10T05:50:20.213Z,63.50
2018-06-10T05:52:50.272Z,63.40
2018-06-10T05:55:20.393Z,61.50
2018-06-10T05:57:50.580Z,60.50
2018-06-10T06:00:20.664Z,60.80
2018-06-10T06:02:50.768Z,62.90
2018-06-10T06:05:21.081Z,60.70
2018-06-10T06:07:51.176Z,59.80
2018-06-10T06:10:21.239Z,60.70
2018-06-10T06:12:51.324Z,58.70
2018-06-10T06:15:21.472Z,57.60
2018-06-10T06:17:51.585Z,55.60
2018-06-10T06:20:21.771Z,54.80
2018-06-10T06:22:51.905Z,55.60
2018-06-10T06:25:22.088Z,57.00
2018-06-10T06:30:21.872Z,56.90
2018-06-10T06:32:51.944Z,56.90
2018-06-10T06:35:21.681Z,58.00
2018-06-10T06:37:51.774Z,55.70
2018-06-10T06:40:21.853Z,53.50
2018-06-10T06:42:51.915Z,55.00
2018-06-10T06:45:22.172Z,55.60
2018-06-10T06:47:52.235Z,53.90
2018-06-10T06:50:22.320Z,55.60
2018-06-10T06:52:53.110Z,55.40
2018-06-10T06:55:23.179Z,54.70
2018-06-10T06:57:53.303Z,53.20
2018-06-10T07:00:23.400Z,52.30
2018-06-10T07:02:53.504Z,54.50
2018-06-10T07:05:23.609Z,52.60
2018-06-10T07:07:53.699Z,53.70
2018-06-10T07:10:23.820Z,54.70
2018-06-10T07:12:53.911Z,54.20
2018-06-10T07:15:24.088Z,54.20
2018-06-10T07:17:54.225Z,55.20
2018-06-10T07:20:24.344Z,54.10
2018-06-10T07:22:54.407Z,55.70
2018-06-10T07:25:24.496Z,53.70
2018-06-10T07:27:54.592Z,52.80
2018-06-10T07:30:24.661Z,55.80
2018-06-10T07:32:54.820Z,54.80
2018-06-10T07:35:24.930Z,53.90
2018-06-10T07:37:55.040Z,53.40
2018-06-10T07:40:25.158Z,51.60
2018-06-10T07:42:55.262Z,53.50
2018-06-10T07:45:25.402Z,53.50
2018-06-10T07:47:55.490Z,53.60
2018-06-10T07:50:25.604Z,52.70
2018-06-10T07:52:55.685Z,53.00
2018-06-10T07:55:25.820Z,52.10
2018-06-10T07:57:55.964Z,51.20
2018-06-10T08:00:26.062Z,51.00
2018-06-10T08:02:56.141Z,49.70
2018-06-10T08:05:26.267Z,48.50
2018-06-10T08:07:56.364Z,51.20
2018-06-10T08:10:26.464Z,50.90
2018-06-10T08:12:56.641Z,51.70
2018-06-10T08:15:26.736Z,51.60
2018-06-10T08:17:56.815Z,51.90
2018-06-10T08:20:27.005Z,52.80
2018-06-10T08:22:57.257Z,53.40
2018-06-10T08:25:27.341Z,51.50
2018-06-10T08:27:57.620Z,53.80
2018-06-10T08:30:27.744Z,54.40
2018-06-10T08:32:57.865Z,54.70
2018-06-10T08:35:27.980Z,54.00
2018-06-10T08:37:58.408Z,53.50
2018-06-10T08:40:28.559Z,53.90
2018-06-10T08:42:58.659Z,53.30
2018-06-10T08:45:28.764Z,53.70
2018-06-10T08:47:58.994Z,54.80
2018-06-10T08:50:29.282Z,54.00
2018-06-10T08:52:59.518Z,52.80
2018-06-10T08:55:29.590Z,54.80
2018-06-10T08:57:59.700Z,51.80
2018-06-10T09:00:29.795Z,51.00
2018-06-10T09:05:29.650Z,51.90
2018-06-10T09:07:59.800Z,49.00
2018-06-10T09:10:29.924Z,49.60
2018-06-10T09:13:00.043Z,50.60
2018-06-10T09:15:30.154Z,52.30
2018-06-10T09:18:00.261Z,52.70
2018-06-10T09:20:30.337Z,54.20
2018-06-10T09:23:00.412Z,55.30
2018-06-10T09:25:30.496Z,58.60
2018-06-10T09:28:00.599Z,56.40
2018-06-10T09:30:30.721Z,56.60
2018-06-10T09:33:01.612Z,59.40
2018-06-10T09:35:31.779Z,60.20
2018-06-10T09:38:01.871Z,61.30
2018-06-10T09:40:32.688Z,61.20
2018-06-10T09:43:02.801Z,62.00
2018-06-10T09:45:32.916Z,64.00
2018-06-10T09:48:02.996Z,70.90
2018-06-10T09:50:33.117Z,77.30
2018-06-10T09:53:03.243Z,83.90
2018-06-10T09:55:33.463Z,88.60
2018-06-10T09:58:03.432Z,90.90
2018-06-10T10:00:33.546Z,92.70
2018-06-10T10:03:03.613Z,93.60
2018-06-10T10:05:33.724Z,94.80
2018-06-10T10:08:04.009Z,95.20
2018-06-10T10:10:34.096Z,95.10
2018-06-10T10:13:04.253Z,95.50
2018-06-10T10:15:34.407Z,95.60
2018-06-10T10:18:04.669Z,95.60
2018-06-10T10:20:34.769Z,95.20
2018-06-10T10:23:04.913Z,95.20
2018-06-10T10:25:35.018Z,94.90
2018-06-10T10:28:05.391Z,94.70
2018-06-10T10:30:35.464Z,95.50
2018-06-10T10:33:05.592Z,95.90
2018-06-10T10:35:35.672Z,96.40
2018-06-10T10:38:05.819Z,96.20
2018-06-10T10:40:35.959Z,95.30
2018-06-10T10:43:06.053Z,95.40
2018-06-10T10:45:36.148Z,94.20
2018-06-10T10:48:06.244Z,92.00
2018-06-10T10:50:36.313Z,91.60
2018-06-10T10:53:06.491Z,91.30
2018-06-10T10:55:36.576Z,91.60
2018-06-10T10:58:06.669Z,91.30
2018-06-10T11:00:36.802Z,91.40
2018-06-10T11:03:06.996Z,91.30
2018-06-10T11:05:37.064Z,91.00
2018-06-10T11:08:07.216Z,90.50
2018-06-10T11:10:37.277Z,90.30
2018-06-10T11:13:07.352Z,90.20
2018-06-10T11:15:37.445Z,91.10
2018-06-10T11:18:07.508Z,91.50
2018-06-10T11:20:37.624Z,91.70
2018-06-10T11:23:07.807Z,92.30
2018-06-10T11:25:37.903Z,92.80
2018-06-10T11:28:07.996Z,93.30
2018-06-10T11:30:38.087Z,93.00
2018-06-10T11:33:08.223Z,94.40
2018-06-10T11:38:07.984Z,93.30
2018-06-10T11:40:38.048Z,93.10
2018-06-10T11:43:08.404Z,92.70
2018-06-10T11:45:38.528Z,92.70
2018-06-10T11:48:08.633Z,92.80
2018-06-10T11:50:38.746Z,93.20
2018-06-10T11:53:08.823Z,92.90
2018-06-10T11:55:38.899Z,92.60
2018-06-10T11:58:09.090Z,92.30
2018-06-10T12:00:39.192Z,91.80
2018-06-10T12:03:09.269Z,91.10
2018-06-10T12:05:39.376Z,90.10
2018-06-10T12:08:09.448Z,89.10
2018-06-10T12:10:39.577Z,87.90
2018-06-10T12:13:09.632Z,88.30
2018-06-10T12:15:39.821Z,88.60
2018-06-10T12:18:09.943Z,87.00
2018-06-10T12:20:40.023Z,83.40
2018-06-10T12:23:10.114Z,81.80
2018-06-10T12:25:40.160Z,79.80
2018-06-10T12:28:10.229Z,75.60
2018-06-10T12:30:40.316Z,77.70
2018-06-10T12:33:10.400Z,76.10
2018-06-10T12:35:40.520Z,77.00
2018-06-10T12:38:10.613Z,77.40
2018-06-10T12:40:40.773Z,76.40
2018-06-10T12:43:10.870Z,75.70
2018-06-10T12:45:41.004Z,76.50
2018-06-10T12:48:11.089Z,75.30
2018-06-10T12:50:41.176Z,75.40
2018-06-10T12:53:11.272Z,74.30
2018-06-10T12:55:42.595Z,74.10
2018-06-10T12:58:12.712Z,73.20
2018-06-10T13:00:42.781Z,72.60
2018-06-10T13:03:12.892Z,69.90
2018-06-10T13:05:43.072Z,68.10
2018-06-10T13:10:42.865Z,66.10
2018-06-10T13:13:12.968Z,63.20
2018-06-10T13:15:44.748Z,62.10
2018-06-10T13:18:14.920Z,60.70
2018-06-10T13:20:45.079Z,60.10
2018-06-10T13:23:15.172Z,59.70
2018-06-10T13:25:45.237Z,59.00
2018-06-10T13:30:45.105Z,58.60
2018-06-10T13:33:15.188Z,58.80
2018-06-10T13:35:45.896Z,58.80
2018-06-10T13:38:15.977Z,58.70
2018-06-10T13:40:46.117Z,58.00
2018-06-10T13:43:16.231Z,57.60
2018-06-10T13:45:46.453Z,57.80
2018-06-10T13:48:16.575Z,59.10
2018-06-10T13:50:46.712Z,58.40
2018-06-10T13:53:16.984Z,58.80
2018-06-10T13:55:47.108Z,60.00
2018-06-10T13:58:17.240Z,60.30
2018-06-10T14:00:47.335Z,59.70
2018-06-10T14:03:17.397Z,60.20
2018-06-10T14:05:47.516Z,59.30
2018-06-10T14:08:17.598Z,58.40
2018-06-10T14:10:47.818Z,59.60
2018-06-10T14:13:18.000Z,61.40
2018-06-10T14:15:48.072Z,60.60
2018-06-10T14:18:18.147Z,60.80
2018-06-10T14:20:48.232Z,61.60
2018-06-10T14:23:18.307Z,59.80
2018-06-10T14:25:48.508Z,61.00
2018-06-10T14:28:18.572Z,60.50
2018-06-10T14:30:48.648Z,60.20
2018-06-10T14:33:18.721Z,60.80
2018-06-10T14:35:48.820Z,58.50
2018-06-10T14:38:18.909Z,58.90
2018-06-10T14:40:49.033Z,58.70
2018-06-10T14:43:19.125Z,59.20
2018-06-10T14:45:49.220Z,58.60
2018-06-10T14:48:19.385Z,59.00
2018-06-10T14:50:49.461Z,58.70
2018-06-10T14:53:19.596Z,58.80
2018-06-10T14:55:49.672Z,60.00
2018-06-10T14:58:19.812Z,59.80
2018-06-10T15:00:49.941Z,59.80
2018-06-10T15:03:20.001Z,60.80
2018-06-10T15:05:50.131Z,59.70
2018-06-10T15:08:20.167Z,60.40
2018-06-10T15:10:50.331Z,60.30
2018-06-10T15:13:20.443Z,60.70
2018-06-10T15:15:50.690Z,60.70
2018-06-10T15:18:20.761Z,61.10
2018-06-10T15:20:50.917Z,61.90
2018-06-10T15:23:20.994Z,61.70
2018-06-10T15:25:51.104Z,60.50
2018-06-10T15:28:21.180Z,60.10
2018-06-10T15:30:51.288Z,60.90
2018-06-10T15:33:21.397Z,61.10
2018-06-10T15:35:51.504Z,62.20
2018-06-10T15:38:21.585Z,62.60
2018-06-10T15:40:51.719Z,63.10
2018-06-10T15:43:21.821Z,63.00
2018-06-10T15:45:51.896Z,63.70
2018-06-10T15:48:22.153Z,64.60
2018-06-10T15:50:52.335Z,64.10
2018-06-10T15:53:22.419Z,65.10
2018-06-10T15:55:52.624Z,66.00
2018-06-10T15:58:22.812Z,65.80
2018-06-10T16:00:52.940Z,66.00
2018-06-10T16:03:23.083Z,66.60
2018-06-10T16:05:53.180Z,68.10
2018-06-10T16:08:23.285Z,68.70
2018-06-10T16:10:53.449Z,69.60
2018-06-10T16:13:23.545Z,69.70
2018-06-10T16:15:53.673Z,70.70
2018-06-10T16:18:23.760Z,75.30
2018-06-10T16:20:53.880Z,81.10
2018-06-10T16:23:24.075Z,86.40
2018-06-10T16:25:54.282Z,90.40
2018-06-10T16:28:24.409Z,92.40
2018-06-10T16:30:54.457Z,93.60
2018-06-10T16:33:24.580Z,93.00
2018-06-10T16:35:54.704Z,93.20
2018-06-10T16:38:24.774Z,93.60
2018-06-10T16:40:54.857Z,93.70
2018-06-10T16:43:24.938Z,93.70
2018-06-10T16:45:55.047Z,93.50
2018-06-10T16:48:25.121Z,92.70
2018-06-10T16:50:55.231Z,92.50
2018-06-10T16:53:25.320Z,93.10
2018-06-10T16:55:55.467Z,92.60
2018-06-10T16:58:25.584Z,92.90
2018-06-10T17:00:55.657Z,92.30
2018-06-10T17:03:25.816Z,92.40
2018-06-10T17:05:55.936Z,92.00
2018-06-10T17:08:26.058Z,91.80
2018-06-10T17:10:56.155Z,92.30
2018-06-10T17:13:26.244Z,91.50
2018-06-10T17:15:56.421Z,91.50
2018-06-10T17:18:26.639Z,92.10
2018-06-10T17:20:56.860Z,91.90
2018-06-10T17:23:26.957Z,91.70
2018-06-10T17:25:57.268Z,91.50
2018-06-10T17:28:27.483Z,91.80
2018-06-10T17:30:57.580Z,92.10
2018-06-10T17:33:27.697Z,92.60
2018-06-10T17:35:57.844Z,92.50
2018-06-10T17:38:27.993Z,92.40
2018-06-10T17:40:58.166Z,92.60
2018-06-10T17:43:28.353Z,93.00
2018-06-10T17:45:58.652Z,93.00
2018-06-10T17:48:29.101Z,93.00
2018-06-10T17:50:59.323Z,93.00
2018-06-10T17:53:29.576Z,93.10
2018-06-10T17:55:59.752Z,93.10
2018-06-10T17:58:29.929Z,93.50
2018-06-10T18:01:00.064Z,93.50
2018-06-10T18:03:30.192Z,93.60
2018-06-10T18:06:00.392Z,94.00
2018-06-10T18:08:30.516Z,93.90
2018-06-10T18:11:00.873Z,94.30
2018-06-10T18:13:31.791Z,94.30
2018-06-10T18:16:02.122Z,94.60
2018-06-10T18:18:32.429Z,94.50
2018-06-10T18:21:02.606Z,94.40
2018-06-10T18:23:32.661Z,94.00
2018-06-10T18:26:02.810Z,94.40
2018-06-10T18:28:32.970Z,94.20
2018-06-10T18:31:03.118Z,94.00
2018-06-10T18:33:33.272Z,94.10
2018-06-10T18:36:03.451Z,94.30
2018-06-10T18:38:33.540Z,93.60
2018-06-10T18:41:03.789Z,93.80
2018-06-10T18:43:34.288Z,93.40
2018-06-10T18:46:04.409Z,93.30
2018-06-10T18:48:34.561Z,93.50
2018-06-10T18:51:04.704Z,93.70
2018-06-10T18:53:34.796Z,93.60
2018-06-10T18:56:05.081Z,94.00
2018-06-10T18:58:35.170Z,94.20
2018-06-10T19:01:05.311Z,94.50
2018-06-10T19:03:35.528Z,95.10
2018-06-10T19:06:05.701Z,95.20
2018-06-10T19:08:35.808Z,95.20
2018-06-10T19:11:05.919Z,95.40
2018-06-10T19:13:36.048Z,95.80
2018-06-10T19:16:06.230Z,96.00
2018-06-10T19:18:36.311Z,96.40
2018-06-10T19:21:06.512Z,96.30
2018-06-10T19:23:36.600Z,96.50
2018-06-10T19:26:06.762Z,96.40
2018-06-10T19:28:36.920Z,96.40
2018-06-10T19:31:09.908Z,96.20
2018-06-10T19:33:40.057Z,96.40
2018-06-10T19:36:10.153Z,96.70
2018-06-10T19:38:40.264Z,96.90
2018-06-10T19:41:10.348Z,96.90
2018-06-10T19:43:40.468Z,97.10
2018-06-10T19:46:10.570Z,96.90
2018-06-10T19:48:41.648Z,96.90
2018-06-10T19:51:11.728Z,97.00
2018-06-10T19:53:41.804Z,97.10
2018-06-10T19:56:11.869Z,97.30
2018-06-10T19:58:41.969Z,97.50
2018-06-10T20:01:12.060Z,97.40
2018-06-10T20:03:42.269Z,97.40
2018-06-10T20:06:12.414Z,97.40
2018-06-10T20:08:42.492Z,97.50
2018-06-10T20:11:12.568Z,97.50
2018-06-10T20:13:42.672Z,97.50
2018-06-10T20:16:12.787Z,97.60
2018-06-10T20:18:42.863Z,97.40
2018-06-10T20:21:12.960Z,97.50
2018-06-10T20:23:43.049Z,97.70
2018-06-10T20:26:13.220Z,97.70
2018-06-10T20:28:43.312Z,97.60
2018-06-10T20:31:13.392Z,97.80
2018-06-10T20:33:43.515Z,97.90
2018-06-10T20:36:13.609Z,98.10
2018-06-10T20:38:43.719Z,98.10
2018-06-10T20:41:13.793Z,98.20
2018-06-10T20:43:43.965Z,98.00
2018-06-10T20:46:14.047Z,98.30
2018-06-10T20:48:44.177Z,98.40
2018-06-10T20:51:14.244Z,98.80
2018-06-10T20:53:44.340Z,98.80
2018-06-10T20:56:14.419Z,99.10
2018-06-10T20:58:44.504Z,99.20
2018-06-10T21:01:14.568Z,99.40
2018-06-10T21:03:44.646Z,99.60
2018-06-10T21:06:14.782Z,99.70
2018-06-10T21:08:44.881Z,99.90
2018-06-10T21:11:15.118Z,99.90
2018-06-10T21:13:45.236Z,99.90
2018-06-10T21:16:15.352Z,99.90
2018-06-10T21:18:45.533Z,99.90
2018-06-10T21:21:15.616Z,99.90
2018-06-10T21:23:45.698Z,99.90
2018-06-10T21:26:15.764Z,99.90
2018-06-10T21:28:45.843Z,99.90
2018-06-10T21:31:15.972Z,99.90
2018-06-10T21:33:46.069Z,99.90
2018-06-10T21:36:16.212Z,99.80
2018-06-10T21:38:46.287Z,99.80
2018-06-10T21:41:16.376Z,99.90
2018-06-10T21:43:46.461Z,99.90
2018-06-10T21:46:16.554Z,99.60
2018-06-10T21:48:46.644Z,99.40
2018-06-10T21:51:16.737Z,99.20
2018-06-10T21:53:46.837Z,99.20
2018-06-10T21:56:16.925Z,99.60
2018-06-10T21:58:47.029Z,99.60
2018-06-10T22:01:17.117Z,99.70
2018-06-10T22:03:47.225Z,99.90
2018-06-10T22:06:17.400Z,99.90
2018-06-10T22:08:47.484Z,99.80
2018-06-10T22:11:17.581Z,99.80
2018-06-10T22:13:47.668Z,99.90
2018-06-10T22:16:17.753Z,99.90
2018-06-10T22:21:17.540Z,99.90
2018-06-10T22:26:17.316Z,99.90
2018-06-10T22:28:47.403Z,99.90
2018-06-10T22:31:17.516Z,99.90
2018-06-10T22:33:47.608Z,99.90
2018-06-10T22:36:17.711Z,99.90
2018-06-10T22:38:47.802Z,99.90
2018-06-10T22:41:17.870Z,99.90
2018-06-10T22:43:47.932Z,99.90
2018-06-10T22:46:18.011Z,99.90
2018-06-10T22:48:48.092Z,99.90
2018-06-10T22:51:18.145Z,99.90
2018-06-10T22:54:50.768Z,99.90
2018-06-10T22:57:20.841Z,99.90
2018-06-10T22:59:50.939Z,99.90
2018-06-10T23:02:21.157Z,99.90
2018-06-10T23:04:51.248Z,99.90
2018-06-10T23:07:21.322Z,99.90
2018-06-10T23:09:51.396Z,99.90
2018-06-10T23:12:21.492Z,99.90
2018-06-10T23:14:51.658Z,99.90
2018-06-10T23:17:21.732Z,99.90
2018-06-10T23:19:51.783Z,99.90
2018-06-10T23:22:21.868Z,99.90
2018-06-10T23:24:51.925Z,99.90
2018-06-10T23:27:22.019Z,99.90
2018-06-10T23:29:52.114Z,99.90
2018-06-10T23:32:22.206Z,99.90
2018-06-10T23:34:52.292Z,99.90
2018-06-10T23:37:22.344Z,99.90
2018-06-10T23:39:52.440Z,99.90
2018-06-10T23:42:22.504Z,99.90
2018-06-10T23:44:52.597Z,99.90
2018-06-10T23:47:22.732Z,99.90
2018-06-10T23:49:52.888Z,99.90
2018-06-10T23:52:22.978Z,99.90
2018-06-10T23:54:53.145Z,99.90
2018-06-10T23:57:23.251Z,99.90
2018-06-10T23:59:53.391Z,99.90
